ěÝzenÝ letovÚho provozu ╚eskÚ republiky
Letiste: LKKB Aktualizace: 24.09.2020 18:00:26  UTC
 METAR LKKB 24.09. 18:00 ...
METAR LKKB 241800Z 34001KT CAVOK 17/12 Q1007 NOSIG RMK BLU BLU=
 TAF LKKB 24.09. 17:00 ...
TAF LKKB 241700Z 2418/2518 24008KT CAVOK      BECMG 2502/2504 BKN030 OVC050      TEMPO 2504/2512 16008KT 4000 RA BKN017      TEMPO 2512/2518 18012KT 6000 SHRA BKN024=